Time;durP1;ratioP1;P1;durP2;ratioP2;P2;SDS_P1;SDS_P2;PMS_P1;PMS_P2;Temp;Humidity;BMP_temperature;BMP_pressure;BME280_temperature;BME280_humidity;BME280_pressure;Samples;Min_cycle;Max_cycle;Signal;HPM_P1;HPM_P2
2021/03/08 00:00:41;;;;;;;19.83;12.60;;;2.00;99.90;;;;;;4806098;29;20047;-77
2021/03/08 00:03:14;;;;;;;20.88;11.95;;;2.00;99.90;;;;;;4831154;29;20054;-76
2021/03/08 00:05:41;;;;;;;17.85;11.52;;;2.00;99.90;;;;;;4807714;29;20107;-76
2021/03/08 00:08:08;;;;;;;19.45;12.07;;;2.00;99.90;;;;;;4834224;29;20064;-76
2021/03/08 00:10:40;;;;;;;19.67;12.07;;;2.00;99.90;;;;;;4804818;29;20145;-76
2021/03/08 00:13:12;;;;;;;20.38;11.55;;;2.00;99.90;;;;;;4808463;29;20057;-76
2021/03/08 00:15:43;;;;;;;20.67;12.20;;;1.90;99.90;;;;;;4798888;29;20416;-76
2021/03/08 00:18:14;;;;;;;21.55;12.68;;;1.80;99.90;;;;;;4806626;29;20043;-76
2021/03/08 00:20:45;;;;;;;19.42;11.70;;;1.70;99.90;;;;;;4819811;29;20529;-77
2021/03/08 00:23:17;;;;;;;19.67;12.32;;;1.70;99.90;;;;;;4820965;29;20054;-76
2021/03/08 00:25:49;;;;;;;20.75;13.50;;;1.50;99.90;;;;;;4821762;29;20099;-77
2021/03/08 00:28:20;;;;;;;23.35;13.15;;;1.30;99.90;;;;;;4820817;29;20050;-76
2021/03/08 00:30:51;;;;;;;24.02;12.25;;;1.20;99.90;;;;;;4821111;29;20051;-76
2021/03/08 00:33:23;;;;;;;22.08;13.35;;;1.20;99.90;;;;;;4820931;29;20042;-77
2021/03/08 00:35:54;;;;;;;21.85;12.65;;;1.10;99.90;;;;;;4821225;29;20119;-77
2021/03/08 00:38:25;;;;;;;20.80;12.45;;;1.00;99.90;;;;;;4821143;29;20043;-76
2021/03/08 00:40:56;;;;;;;19.45;12.40;;;1.00;99.90;;;;;;4821662;29;20507;-77
2021/03/08 00:43:23;;;;;;;20.98;13.82;;;1.00;99.90;;;;;;4821545;29;20419;-76
2021/03/08 00:45:54;;;;;;;19.90;12.30;;;0.80;99.90;;;;;;4820813;29;20061;-77
2021/03/08 00:48:26;;;;;;;20.92;13.00;;;0.70;99.90;;;;;;4821177;29;20042;-76
2021/03/08 00:50:52;;;;;;;21.20;11.98;;;0.60;99.90;;;;;;4821094;29;20054;-77
2021/03/08 00:53:21;;;;;;;20.70;13.38;;;0.40;99.90;;;;;;4821311;29;20578;-77
2021/03/08 00:55:53;;;;;;;20.13;13.02;;;0.40;99.90;;;;;;4820491;29;20050;-77
2021/03/08 00:58:19;;;;;;;24.42;13.15;;;0.30;99.90;;;;;;4820837;29;20571;-77
2021/03/08 01:00:52;;;;;;;20.88;11.88;;;0.30;99.90;;;;;;4820256;29;20049;-77
2021/03/08 01:03:24;;;;;;;23.52;12.70;;;0.30;99.90;;;;;;4820290;29;20042;-76
2021/03/08 01:05:55;;;;;;;24.17;14.45;;;0.30;99.90;;;;;;4822465;29;20109;-77
2021/03/08 01:08:33;;;;;;;23.13;13.57;;;0.40;99.90;;;;;;4819550;29;20137;-77
2021/03/08 01:11:06;;;;;;;22.05;12.65;;;0.40;99.90;;;;;;4821377;29;20129;-77
2021/03/08 01:14:10;;;;;;;22.40;12.40;;;0.40;99.90;;;;;;4814925;29;20057;-77
2021/03/08 01:16:42;;;;;;;20.60;12.98;;;0.30;99.90;;;;;;4821108;29;20042;-77
2021/03/08 01:19:14;;;;;;;24.45;13.40;;;0.20;99.90;;;;;;4821982;29;20042;-77
2021/03/08 01:21:45;;;;;;;21.52;12.20;;;0.20;99.90;;;;;;4820453;29;20526;-77
2021/03/08 01:24:17;;;;;;;23.83;12.98;;;0.10;99.90;;;;;;4820136;29;20050;-77
2021/03/08 01:26:43;;;;;;;20.73;11.93;;;0.10;99.90;;;;;;4821065;29;20046;-77
2021/03/08 01:29:15;;;;;;;20.10;11.45;;;0.00;99.90;;;;;;4820644;29;20061;-77
2021/03/08 01:31:46;;;;;;;20.08;12.05;;;0.00;99.90;;;;;;4820849;29;20081;-77
2021/03/08 01:34:17;;;;;;;20.52;11.98;;;0.00;99.90;;;;;;4820876;29;20046;-77
2021/03/08 01:36:44;;;;;;;23.13;11.68;;;0.00;99.90;;;;;;4820527;29;20082;-77
2021/03/08 01:39:15;;;;;;;21.65;12.55;;;0.20;99.90;;;;;;4819680;29;20039;-77
2021/03/08 01:41:46;;;;;;;18.55;11.25;;;0.20;99.90;;;;;;4805470;29;20050;-77
2021/03/08 01:44:13;;;;;;;21.23;12.60;;;0.30;99.90;;;;;;4820577;29;20050;-77
2021/03/08 01:46:44;;;;;;;21.90;12.32;;;0.20;99.90;;;;;;4820009;29;20089;-77
2021/03/08 01:49:10;;;;;;;25.40;12.35;;;0.20;99.90;;;;;;4804910;29;20446;-77
2021/03/08 01:51:44;;;;;;;22.38;12.10;;;0.20;99.90;;;;;;4820671;29;20580;-77
2021/03/08 01:54:15;;;;;;;22.52;12.05;;;0.20;99.90;;;;;;4820596;29;20445;-76
2021/03/08 01:56:46;;;;;;;23.58;12.85;;;0.20;99.90;;;;;;4819387;29;20073;-77
2021/03/08 01:59:17;;;;;;;17.90;11.23;;;0.30;99.90;;;;;;4820167;29;20058;-77
2021/03/08 02:01:49;;;;;;;19.90;11.95;;;0.30;99.90;;;;;;4819897;29;20053;-77
2021/03/08 02:04:20;;;;;;;19.83;11.77;;;0.20;99.90;;;;;;4819856;29;20047;-77
2021/03/08 02:06:51;;;;;;;21.92;13.55;;;0.30;99.90;;;;;;4819908;29;20074;-77
2021/03/08 02:09:23;;;;;;;20.13;11.65;;;0.30;99.90;;;;;;4820080;29;20060;-77
2021/03/08 02:11:55;;;;;;;22.83;12.55;;;0.20;99.90;;;;;;4820348;29;20074;-77
2021/03/08 02:15:01;;;;;;;20.08;12.30;;;0.20;99.90;;;;;;4804785;29;20062;-77
2021/03/08 02:17:36;;;;;;;24.30;12.38;;;0.10;99.90;;;;;;4797379;29;20051;-77
2021/03/08 02:20:45;;;;;;;20.40;12.00;;;0.00;99.90;;;;;;4819035;29;20058;-77
2021/03/08 02:23:48;;;;;;;23.83;11.93;;;-0.10;99.90;;;;;;4819920;29;20057;-77
2021/03/08 02:26:44;;;;;;;20.27;12.13;;;-0.10;99.90;;;;;;4819862;29;20046;-77
2021/03/08 02:29:49;;;;;;;21.98;11.70;;;-0.10;99.90;;;;;;4818909;29;20051;-77
2021/03/08 02:32:28;;;;;;;17.63;10.45;;;-0.10;99.90;;;;;;4819997;29;20073;-76
2021/03/08 02:35:06;;;;;;;22.02;11.18;;;-0.10;99.90;;;;;;4819225;29;20407;-77
2021/03/08 02:38:03;;;;;;;19.40;11.20;;;-0.20;99.90;;;;;;4819851;29;20136;-77
2021/03/08 02:40:45;;;;;;;22.33;12.65;;;-0.30;99.90;;;;;;4819478;29;20058;-77
2021/03/08 02:43:41;;;;;;;22.60;12.27;;;-0.30;99.90;;;;;;4821139;29;20046;-77
2021/03/08 02:46:23;;;;;;;20.10;11.30;;;-0.40;99.90;;;;;;4815306;29;20511;-76
2021/03/08 02:48:57;;;;;;;19.80;12.15;;;-0.40;99.90;;;;;;4821042;29;20081;-77
2021/03/08 02:51:29;;;;;;;;;;;-0.40;99.90;;;;;;4805057;29;20060;-76
2021/03/08 02:54:02;;;;;;;26.48;13.63;;;-0.40;99.90;;;;;;4819673;29;19925;-77
2021/03/08 02:56:35;;;;;;;27.40;14.55;;;-0.40;99.90;;;;;;4819187;29;20056;-77
2021/03/08 02:59:08;;;;;;;27.23;15.25;;;-0.40;99.90;;;;;;4804233;29;20050;-76
2021/03/08 03:01:42;;;;;;;24.27;15.45;;;-0.30;99.90;;;;;;4819828;29;20085;-77
2021/03/08 03:04:15;;;;;;;27.88;15.88;;;-0.30;99.90;;;;;;4818952;29;20069;-77
2021/03/08 03:06:47;;;;;;;22.37;13.73;;;-0.30;99.90;;;;;;4819017;29;20134;-77
2021/03/08 03:09:21;;;;;;;26.98;13.70;;;-0.30;99.90;;;;;;4818603;29;20296;-77
2021/03/08 03:11:55;;;;;;;23.23;13.25;;;-0.30;99.90;;;;;;4804637;29;20515;-76
2021/03/08 03:14:27;;;;;;;19.73;12.27;;;-0.30;99.90;;;;;;4819083;29;20060;-76
2021/03/08 03:17:07;;;;;;;21.80;12.98;;;-0.40;99.90;;;;;;4818881;29;20133;-77
2021/03/08 03:19:42;;;;;;;28.13;13.43;;;-0.40;99.90;;;;;;4820465;29;20049;-77
2021/03/08 03:22:14;;;;;;;27.25;14.60;;;-0.40;99.90;;;;;;4818877;29;20134;-77
2021/03/08 03:24:47;;;;;;;21.20;12.18;;;-0.40;99.90;;;;;;4818793;29;20053;-76
2021/03/08 03:27:20;;;;;;;17.45;10.48;;;-0.40;99.90;;;;;;4819732;29;20141;-77
2021/03/08 03:29:47;;;;;;;21.65;12.68;;;-0.50;99.90;;;;;;4822253;29;20053;-76
2021/03/08 03:32:14;;;;;;;19.48;11.32;;;-0.50;99.90;;;;;;4807501;29;20086;-76
2021/03/08 03:34:47;;;;;;;20.35;11.60;;;-0.60;99.90;;;;;;4822041;29;20060;-77
2021/03/08 03:37:21;;;;;;;21.38;12.27;;;-0.70;99.90;;;;;;4823800;29;20066;-76
2021/03/08 03:39:53;;;;;;;19.85;12.05;;;-0.90;99.90;;;;;;4807200;29;20073;-77
2021/03/08 03:42:24;;;;;;;21.67;12.43;;;-1.00;99.90;;;;;;4821806;29;20138;-77
2021/03/08 03:44:55;;;;;;;20.90;12.15;;;-1.00;99.90;;;;;;4822463;29;20050;-77
2021/03/08 03:47:27;;;;;;;18.83;12.35;;;-1.00;99.90;;;;;;4807382;29;20138;-76
2021/03/08 03:49:58;;;;;;;21.67;12.82;;;-1.00;99.90;;;;;;4823302;29;20510;-76
2021/03/08 03:52:30;;;;;;;23.17;12.77;;;-1.00;99.90;;;;;;4821877;29;20540;-76
2021/03/08 03:55:01;;;;;;;22.42;12.27;;;-1.00;99.90;;;;;;4821860;29;20046;-77
2021/03/08 03:58:11;;;;;;;20.10;13.23;;;-1.00;99.90;;;;;;4821215;29;20126;-76
2021/03/08 04:00:52;;;;;;;26.02;16.77;;;-0.90;99.90;;;;;;4823514;29;20465;-76
2021/03/08 04:03:30;;;;;;;26.73;16.33;;;-0.90;99.90;;;;;;4822269;29;20471;-77
2021/03/08 04:05:59;;;;;;;22.50;14.35;;;-0.80;99.90;;;;;;4822337;29;20050;-77
2021/03/08 04:08:30;;;;;;;;;;;-0.80;99.90;;;;;;4821625;29;20138;-76
2021/03/08 04:11:00;;;;;;;21.55;11.07;;;-0.90;99.90;;;;;;4821951;29;19925;-76
2021/03/08 04:13:33;;;;;;;23.95;15.23;;;-0.90;99.90;;;;;;4821980;29;20074;-76
2021/03/08 04:16:00;;;;;;;26.23;15.80;;;-1.00;99.90;;;;;;4806855;29;20076;-77
2021/03/08 04:18:32;;;;;;;27.40;15.07;;;-1.00;99.90;;;;;;4821709;29;20078;-77
2021/03/08 04:21:04;;;;;;;24.70;13.75;;;-1.10;99.90;;;;;;4821282;29;20051;-77
2021/03/08 04:23:38;;;;;;;22.08;12.45;;;-1.10;99.90;;;;;;4821882;29;20078;-77
2021/03/08 04:26:10;;;;;;;19.02;12.32;;;-1.10;99.90;;;;;;4821819;29;20141;-77
2021/03/08 04:28:43;;;;;;;22.15;11.98;;;-1.10;99.90;;;;;;4820931;29;20047;-76
2021/03/08 04:31:16;;;;;;;21.73;12.48;;;-1.00;99.90;;;;;;4821201;29;20047;-76
2021/03/08 04:33:48;;;;;;;19.73;11.60;;;-1.00;99.90;;;;;;4806637;29;20508;-77
2021/03/08 04:36:21;;;;;;;19.35;11.90;;;-1.00;99.90;;;;;;4820975;29;20060;-77
2021/03/08 04:38:53;;;;;;;18.25;10.90;;;-1.00;99.90;;;;;;4820377;29;20066;-77
2021/03/08 04:41:30;;;;;;;17.63;10.95;;;-1.00;99.90;;;;;;4821031;29;20422;-77
2021/03/08 04:44:03;;;;;;;19.67;12.13;;;-1.00;99.90;;;;;;4806568;29;20066;-77
2021/03/08 04:46:35;;;;;;;24.83;13.38;;;-1.10;99.90;;;;;;4820875;29;20054;-76
2021/03/08 04:49:07;;;;;;;24.35;13.43;;;-1.10;99.90;;;;;;4820493;29;20074;-77
2021/03/08 04:51:40;;;;;;;24.15;13.70;;;-1.10;99.90;;;;;;4820641;29;20503;-77
2021/03/08 04:54:07;;;;;;;26.00;13.45;;;-1.10;99.90;;;;;;4806265;29;20050;-77
2021/03/08 04:56:38;;;;;;;24.15;13.35;;;-1.10;99.90;;;;;;4821319;29;20047;-77
2021/03/08 04:59:05;;;;;;;22.15;12.80;;;-1.20;99.90;;;;;;4820928;29;20054;-77
2021/03/08 05:01:37;;;;;;;25.73;13.18;;;-1.20;99.90;;;;;;4821090;29;20043;-77
2021/03/08 05:04:09;;;;;;;26.73;14.65;;;-1.30;99.90;;;;;;4820840;29;20046;-76
2021/03/08 05:06:40;;;;;;;25.20;13.07;;;-1.30;99.90;;;;;;4821411;29;20056;-77
2021/03/08 05:09:14;;;;;;;28.50;16.00;;;-1.30;99.90;;;;;;4820406;29;20127;-77
2021/03/08 05:11:46;;;;;;;24.88;13.57;;;-1.40;99.90;;;;;;4821350;29;20081;-77
2021/03/08 05:14:20;;;;;;;26.90;14.55;;;-1.40;99.90;;;;;;4821301;29;20103;-77
2021/03/08 05:16:53;;;;;;;26.00;13.18;;;-1.50;99.90;;;;;;4821847;29;20061;-77
2021/03/08 05:19:25;;;;;;;22.05;12.00;;;-1.50;99.90;;;;;;4820961;29;20058;-76
2021/03/08 05:21:56;;;;;;;24.52;13.23;;;-1.50;99.90;;;;;;4822278;29;20046;-78
2021/03/08 05:24:28;;;;;;;24.85;14.27;;;-1.50;99.90;;;;;;4820776;29;20054;-78
2021/03/08 05:27:08;;;;;;;28.88;16.42;;;-1.50;99.90;;;;;;4820556;29;20061;-78
2021/03/08 05:29:40;;;;;;;33.83;17.17;;;-1.60;99.90;;;;;;4823329;29;20049;-78
2021/03/08 05:32:10;;;;;;;30.85;15.20;;;-1.70;99.90;;;;;;4821738;29;20597;-78
2021/03/08 05:34:41;;;;;;;23.08;13.20;;;-1.80;99.90;;;;;;4838161;29;20053;-77
2021/03/08 05:37:14;;;;;;;26.65;14.40;;;-1.80;99.90;;;;;;4836921;29;20045;-78
2021/03/08 05:39:49;;;;;;;26.88;14.43;;;-1.80;99.90;;;;;;4835882;29;20051;-78
2021/03/08 05:42:17;;;;;;;26.42;13.50;;;-1.80;99.90;;;;;;4838088;29;20589;-78
2021/03/08 05:45:02;;;;;;;23.85;13.00;;;-1.80;99.90;;;;;;4836597;29;20042;-77
2021/03/08 05:48:06;;;;;;;22.60;12.60;;;-1.90;99.90;;;;;;4838004;29;20137;-78
2021/03/08 05:51:01;;;;;;;23.75;12.15;;;-1.80;99.90;;;;;;4821035;29;20141;-78
2021/03/08 05:54:14;;;;;;;21.30;12.35;;;-1.80;99.90;;;;;;4836964;29;20133;-78
2021/03/08 05:57:15;;;;;;;22.60;12.65;;;-1.80;99.90;;;;;;4784862;29;20145;-78
2021/03/08 05:59:59;;;;;;;26.80;13.27;;;-1.80;99.90;;;;;;4804046;29;20050;-78
2021/03/08 06:03:03;;;;;;;21.75;12.40;;;-1.80;99.90;;;;;;4801616;29;20511;-78
2021/03/08 06:05:48;;;;;;;27.25;12.93;;;-1.80;99.90;;;;;;4785716;29;20061;-78
2021/03/08 06:08:27;;;;;;;20.50;11.50;;;-1.80;99.90;;;;;;4812766;29;20423;-79
2021/03/08 06:11:12;;;;;;;23.13;12.40;;;-1.80;99.90;;;;;;4807577;29;20070;-79
2021/03/08 06:13:51;;;;;;;23.08;12.45;;;-1.80;99.90;;;;;;4794069;29;20061;-77
2021/03/08 06:16:32;;;;;;;21.65;11.80;;;-1.90;99.90;;;;;;4795403;29;20053;-78
2021/03/08 06:19:10;;;;;;;24.77;13.07;;;-1.90;99.90;;;;;;4795335;29;20129;-78
2021/03/08 06:21:40;;;;;;;23.45;13.40;;;-1.90;99.90;;;;;;4796963;29;20061;-79
2021/03/08 06:24:08;;;;;;;23.08;12.50;;;-1.90;99.90;;;;;;4821434;29;20124;-78
2021/03/08 06:26:34;;;;;;;26.23;12.80;;;-1.90;99.90;;;;;;4832821;29;20056;-80
2021/03/08 06:29:01;;;;;;;22.15;13.10;;;-2.00;99.90;;;;;;4847737;29;20045;-78
2021/03/08 06:31:28;;;;;;;32.88;17.33;;;-2.00;99.90;;;;;;4832532;29;20054;-78
2021/03/08 06:34:00;;;;;;;71.25;33.47;;;-2.00;99.90;;;;;;4847633;29;20486;-78
2021/03/08 06:36:27;;;;;;;71.15;32.97;;;-1.90;99.90;;;;;;4833015;29;20066;-78
2021/03/08 06:38:59;;;;;;;44.05;23.13;;;-1.80;99.90;;;;;;4846938;29;20046;-78
2021/03/08 06:41:29;;;;;;;42.22;22.75;;;-1.80;99.90;;;;;;4817966;29;20145;-78
2021/03/08 06:44:02;;;;;;;56.15;28.02;;;-1.70;99.90;;;;;;4847747;29;20046;-78
2021/03/08 06:46:30;;;;;;;48.05;25.75;;;-1.70;99.90;;;;;;4832230;29;20054;-79
2021/03/08 06:48:56;;;;;;;37.28;19.77;;;-1.60;99.90;;;;;;4847682;29;20060;-77
2021/03/08 06:51:23;;;;;;;29.60;16.08;;;-1.60;99.90;;;;;;4832596;29;20054;-78
2021/03/08 06:53:50;;;;;;;29.95;15.85;;;-1.60;99.90;;;;;;4846926;29;20082;-78
2021/03/08 06:56:19;;;;;;;28.45;15.88;;;-1.50;99.90;;;;;;4816263;29;20053;-78
2021/03/08 06:59:04;;;;;;;25.95;14.80;;;-1.50;99.90;;;;;;4832267;29;20054;-78
2021/03/08 07:01:33;;;;;;;24.08;13.05;;;-1.50;99.90;;;;;;4847095;29;20050;-79
2021/03/08 07:04:02;;;;;;;25.25;14.65;;;-1.50;99.90;;;;;;4835605;29;20133;-79
2021/03/08 07:06:29;;;;;;;22.08;12.90;;;-1.40;99.90;;;;;;4850764;29;20049;-78
2021/03/08 07:09:13;;;;;;;23.30;12.77;;;-1.40;99.90;;;;;;4850340;29;20076;-78
2021/03/08 07:11:40;;;;;;;24.10;13.57;;;-1.30;99.90;;;;;;4836108;29;20054;-77
2021/03/08 07:14:19;;;;;;;26.73;13.93;;;-1.30;99.90;;;;;;4835345;29;20413;-79
2021/03/08 07:16:45;;;;;;;23.48;12.60;;;-1.20;99.90;;;;;;4850472;29;20050;-78
2021/03/08 07:19:17;;;;;;;20.80;12.75;;;-1.20;99.90;;;;;;4849933;29;20050;-78
2021/03/08 07:21:53;;;;;;;20.10;11.85;;;-1.10;99.90;;;;;;4834630;29;20077;-78
2021/03/08 07:24:25;;;;;;;22.60;13.48;;;-1.10;99.90;;;;;;4834452;29;20057;-78
2021/03/08 07:26:54;;;;;;;24.38;12.88;;;-1.00;99.90;;;;;;4834076;29;20046;-78
2021/03/08 07:29:22;;;;;;;24.85;14.48;;;-0.90;99.90;;;;;;4828075;29;20038;-78
2021/03/08 07:31:51;;;;;;;24.85;12.82;;;-0.90;99.90;;;;;;4829442;29;20054;-78
2021/03/08 07:34:23;;;;;;;23.02;13.43;;;-0.90;99.90;;;;;;4811064;29;20042;-77
2021/03/08 07:37:00;;;;;;;20.88;12.57;;;-0.80;99.90;;;;;;4811615;29;20506;-77
2021/03/08 07:39:31;;;;;;;24.60;12.77;;;-0.70;99.90;;;;;;4810392;29;20051;-78
2021/03/08 07:42:09;;;;;;;21.17;13.13;;;-0.60;99.90;;;;;;4811137;29;20050;-78
2021/03/08 07:44:49;;;;;;;21.73;12.82;;;-0.60;99.90;;;;;;4810795;29;20042;-78
2021/03/08 07:47:21;;;;;;;26.38;14.57;;;-0.50;99.90;;;;;;4810485;29;20426;-78
2021/03/08 07:49:52;;;;;;;20.63;12.95;;;-0.40;99.90;;;;;;4811334;29;20417;-78
2021/03/08 07:52:32;;;;;;;20.73;13.93;;;-0.30;99.90;;;;;;4825047;29;20494;-78
2021/03/08 07:55:04;;;;;;;31.55;14.85;;;-0.30;99.90;;;;;;4811238;29;20053;-78
2021/03/08 07:57:37;;;;;;;22.35;13.52;;;-0.10;99.90;;;;;;4810629;29;20077;-78
2021/03/08 08:00:31;;;;;;;19.98;12.82;;;-0.10;99.90;;;;;;5670023;24;20028;-77
2021/03/08 08:03:06;;;;;;;24.60;12.98;;;0.00;99.90;;;;;;4805973;29;20051;-77
2021/03/08 08:05:33;;;;;;;23.90;15.15;;;0.10;99.90;;;;;;4807531;29;20046;-78
2021/03/08 08:10:58;;;;;;;21.83;12.93;;;0.20;99.90;;;;;;5063131;24;20058;-78
2021/03/08 08:13:44;;;;;;;20.83;12.35;;;0.30;99.90;;;;;;4813577;29;20407;-77
2021/03/08 08:16:12;;;;;;;21.98;12.15;;;0.40;99.90;;;;;;4828215;29;20057;-77
2021/03/08 08:18:46;;;;;;;23.08;12.23;;;0.40;99.90;;;;;;4813109;29;20060;-78
2021/03/08 08:21:18;;;;;;;21.10;12.88;;;0.50;99.90;;;;;;4844785;29;20049;-78
2021/03/08 08:24:02;;;;;;;18.73;12.00;;;0.50;99.90;;;;;;4814371;29;20078;-78
2021/03/08 08:26:33;;;;;;;20.05;12.65;;;0.60;99.90;;;;;;4814145;29;20053;-77
2021/03/08 08:29:05;;;;;;;19.27;12.10;;;0.70;99.90;;;;;;4828611;29;20186;-78
2021/03/08 08:32:01;;;;;;;16.95;10.93;;;0.80;99.90;;;;;;4828315;29;20089;-78
2021/03/08 08:34:41;;;;;;;17.67;11.65;;;0.90;99.90;;;;;;4827813;29;20053;-78
2021/03/08 08:37:19;;;;;;;21.13;10.45;;;1.00;99.90;;;;;;4812829;29;20167;-78
2021/03/08 08:39:51;;;;;;;21.65;11.93;;;1.10;99.90;;;;;;4881808;24;20053;-78
2021/03/08 08:42:24;;;;;;;21.52;12.23;;;1.20;99.90;;;;;;4843184;29;20565;-78
2021/03/08 08:44:55;;;;;;;19.92;12.50;;;1.40;99.90;;;;;;4828121;29;20429;-77
2021/03/08 08:47:24;;;;;;;29.90;21.80;;;1.50;99.90;;;;;;4812999;29;20128;-77
2021/03/08 08:49:54;;;;;;;25.98;14.55;;;1.60;99.90;;;;;;4831452;29;20091;-78
2021/03/08 08:52:45;;;;;;;19.90;11.07;;;1.60;99.90;;;;;;4830818;29;20073;-77
2021/03/08 08:55:21;;;;;;;19.48;12.35;;;1.80;99.90;;;;;;4831143;29;20042;-78
2021/03/08 09:00:38;;;;;;;19.65;12.27;;;2.00;99.90;;;;;;4786368;29;20112;-78
2021/03/08 09:03:19;;;;;;;17.88;11.57;;;2.10;99.90;;;;;;4773474;30;20073;-78
2021/03/08 09:05:49;;;;;;;16.92;10.27;;;2.20;99.90;;;;;;4788117;29;20109;-78
2021/03/08 09:11:49;;;;;;;17.33;10.55;;;2.30;99.90;;;;;;4989667;24;20417;-78
2021/03/08 09:14:22;;;;;;;17.88;11.23;;;2.50;99.90;;;;;;4812887;29;20506;-78
2021/03/08 09:17:08;;;;;;;16.02;10.00;;;2.60;99.90;;;;;;4812884;29;20054;-78
2021/03/08 09:19:42;;;;;;;20.58;10.73;;;2.70;99.90;;;;;;4917080;24;20068;-78
2021/03/08 09:22:20;;;;;;;14.57;10.20;;;2.80;99.90;;;;;;4824603;29;20077;-78
2021/03/08 09:24:48;;;;;;;18.20;10.85;;;2.90;99.90;;;;;;4823559;29;20117;-78
2021/03/08 09:27:24;;;;;;;14.85;9.48;;;3.00;99.90;;;;;;4838550;29;20058;-78
2021/03/08 09:29:52;;;;;;;16.63;10.60;;;3.20;99.90;;;;;;5265680;24;20787;-78
2021/03/08 09:32:19;;;;;;;16.55;10.27;;;3.30;99.90;;;;;;4840921;29;20471;-77
2021/03/08 09:34:51;;;;;;;21.58;11.25;;;3.30;99.90;;;;;;4845612;29;20521;-77
2021/03/08 09:37:19;;;;;;;19.88;10.63;;;3.50;99.90;;;;;;4859853;29;20064;-77
2021/03/08 09:39:54;;;;;;;16.70;10.65;;;3.50;99.90;;;;;;4844303;29;20053;-78
2021/03/08 09:42:21;;;;;;;15.93;11.00;;;3.50;99.90;;;;;;4829838;29;20061;-79
2021/03/08 09:44:56;;;;;;;15.10;11.32;;;3.60;99.90;;;;;;4843778;29;20050;-79
2021/03/08 09:47:39;;;;;;;15.20;10.88;;;3.70;99.90;;;;;;4841218;29;20137;-78
2021/03/08 09:50:10;;;;;;;13.70;9.35;;;3.70;99.90;;;;;;4826532;29;20053;-78
2021/03/08 09:52:42;;;;;;;15.52;10.10;;;3.80;99.90;;;;;;4840688;29;20046;-78
2021/03/08 09:55:21;;;;;;;15.38;9.77;;;3.80;99.90;;;;;;4821474;29;20050;-78
2021/03/08 09:57:53;;;;;;;12.98;8.98;;;4.00;99.90;;;;;;4821366;29;20133;-78
2021/03/08 10:00:26;;;;;;;20.45;10.93;;;4.00;99.90;;;;;;4820563;29;20054;-78
2021/03/08 10:03:03;;;;;;;14.57;9.95;;;4.10;99.90;;;;;;4823141;29;20085;-78
2021/03/08 10:05:39;;;;;;;16.50;11.23;;;4.20;99.90;;;;;;4806145;29;20053;-78
2021/03/08 10:08:12;;;;;;;13.57;9.05;;;4.30;99.90;;;;;;4820106;29;20294;-78
2021/03/08 10:10:52;;;;;;;16.83;10.00;;;4.40;97.80;;;;;;4823276;29;20056;-78
2021/03/08 10:13:20;;;;;;;16.00;10.05;;;4.40;97.50;;;;;;4823502;29;20461;-78
2021/03/08 10:15:49;;;;;;;16.63;9.95;;;4.50;96.30;;;;;;4822728;29;20056;-79
2021/03/08 10:18:30;;;;;;;16.25;10.27;;;4.50;97.30;;;;;;4822868;29;20057;-79
2021/03/08 10:21:04;;;;;;;14.35;9.73;;;4.60;96.00;;;;;;4808447;29;20042;-79
2021/03/08 10:23:36;;;;;;;13.75;9.35;;;4.60;96.70;;;;;;4824334;29;20046;-79
2021/03/08 10:26:07;;;;;;;14.13;10.13;;;4.70;96.50;;;;;;4823091;29;20126;-79
2021/03/08 10:28:38;;;;;;;16.70;10.32;;;4.80;96.90;;;;;;4822873;29;20050;-78
2021/03/08 10:31:06;;;;;;;14.85;9.68;;;4.90;98.20;;;;;;4822726;29;20058;-79
2021/03/08 10:33:34;;;;;;;14.32;10.02;;;4.90;97.20;;;;;;4822615;29;20118;-78
2021/03/08 10:36:00;;;;;;;16.17;10.30;;;5.00;97.10;;;;;;4807086;29;20081;-78
2021/03/08 10:38:32;;;;;;;16.02;10.45;;;5.10;96.90;;;;;;4824738;29;20061;-78
2021/03/08 10:41:05;;;;;;;13.75;9.45;;;5.20;95.20;;;;;;4813072;29;20133;-78
2021/03/08 10:43:36;;;;;;;11.48;7.60;;;5.30;93.80;;;;;;4814711;29;20626;-79
2021/03/08 10:46:04;;;;;;;13.10;9.25;;;5.40;90.60;;;;;;4813515;29;20057;-78
2021/03/08 10:48:35;;;;;;;13.88;9.73;;;5.50;90.30;;;;;;4815076;29;20069;-79
2021/03/08 10:51:18;;;;;;;13.55;8.93;;;5.60;88.80;;;;;;4815173;29;20057;-78
2021/03/08 10:54:04;;;;;;;11.23;8.25;;;5.60;88.00;;;;;;4829559;29;20050;-78
2021/03/08 10:56:38;;;;;;;13.23;8.75;;;5.70;79.90;;;;;;4829650;29;20095;-78
2021/03/08 10:59:28;;;;;;;13.20;9.20;;;5.80;83.60;;;;;;4950005;24;20123;-79
2021/03/08 11:02:00;;;;;;;12.50;9.55;;;5.80;84.90;;;;;;4828993;29;20079;-79
2021/03/08 11:04:27;;;;;;;11.95;9.02;;;5.90;82.30;;;;;;4845193;29;20111;-79
2021/03/08 11:06:54;;;;;;;11.20;8.05;;;6.00;79.60;;;;;;4829632;29;20081;-79
2021/03/08 11:09:27;;;;;;;11.05;8.43;;;6.10;77.50;;;;;;4829500;29;20054;-78
2021/03/08 11:12:00;;;;;;;12.07;8.90;;;6.10;75.40;;;;;;4829153;29;20054;-79
2021/03/08 11:15:01;;;;;;;12.48;9.30;;;6.10;77.00;;;;;;4814838;29;20080;-79
2021/03/08 11:17:35;;;;;;;28.88;15.10;;;6.20;71.80;;;;;;4829117;29;20061;-79
2021/03/08 11:20:13;;;;;;;15.60;9.48;;;6.10;73.80;;;;;;4814825;29;20050;-79
2021/03/08 11:23:04;;;;;;;14.60;9.40;;;6.20;74.30;;;;;;4813909;29;20046;-79
2021/03/08 11:25:34;;;;;;;11.55;8.70;;;6.30;73.00;;;;;;4828848;29;20141;-80
2021/03/08 11:28:14;;;;;;;11.63;8.60;;;6.20;71.70;;;;;;4829541;29;20053;-80
2021/03/08 11:30:50;;;;;;;12.13;8.50;;;6.30;72.40;;;;;;4814555;29;20149;-79
2021/03/08 11:33:22;;;;;;;11.55;7.75;;;6.30;72.40;;;;;;4829664;29;20046;-80
2021/03/08 11:35:53;;;;;;;10.07;7.68;;;6.40;71.20;;;;;;4813689;29;20586;-79
2021/03/08 11:46:54;;;;;;;12.20;8.53;;;6.60;72.60;;;;;;4808254;29;20129;-79
2021/03/08 11:49:26;;;;;;;11.70;8.15;;;6.70;68.40;;;;;;4825921;29;20413;-79
2021/03/08 11:51:58;;;;;;;11.20;9.15;;;6.80;64.20;;;;;;4829097;29;20050;-79
2021/03/08 11:54:31;;;;;;;10.98;8.38;;;6.90;67.30;;;;;;4827566;29;20145;-78
2021/03/08 11:56:59;;;;;;;15.60;9.50;;;6.90;65.00;;;;;;4812685;29;20045;-77
2021/03/08 11:59:31;;;;;;;14.15;9.23;;;6.90;64.10;;;;;;4928368;24;20560;-79
2021/03/08 12:01:58;;;;;;;26.20;12.70;;;6.90;68.30;;;;;;4827872;29;20058;-78
2021/03/08 12:04:26;;;;;;;17.23;10.98;;;7.00;67.20;;;;;;4813103;29;20054;-78
2021/03/08 12:06:58;;;;;;;17.57;10.50;;;7.10;67.50;;;;;;4813748;29;20533;-79
2021/03/08 12:09:24;;;;;;;11.57;8.93;;;7.10;68.10;;;;;;4813239;29;20102;-79
2021/03/08 12:11:51;;;;;;;14.77;10.13;;;7.10;64.60;;;;;;4828061;29;20525;-78
2021/03/08 12:14:23;;;;;;;14.93;9.00;;;7.00;62.70;;;;;;4828313;29;20056;-78
2021/03/08 12:16:55;;;;;;;14.02;9.13;;;6.90;63.40;;;;;;4813276;29;20038;-78
2021/03/08 12:19:27;;;;;;;17.30;11.38;;;7.00;64.80;;;;;;4813228;29;20141;-78
2021/03/08 12:21:54;;;;;;;18.30;10.68;;;6.70;64.00;;;;;;4827939;29;20467;-78
2021/03/08 12:24:26;;;;;;;13.90;10.02;;;6.60;64.50;;;;;;4813059;29;20046;-78
2021/03/08 12:26:58;;;;;;;12.10;9.48;;;6.50;66.30;;;;;;4828154;29;20046;-78
2021/03/08 12:29:25;;;;;;;11.63;8.77;;;6.60;65.60;;;;;;4844581;29;20046;-78
2021/03/08 12:31:57;;;;;;;19.27;10.35;;;6.70;64.10;;;;;;4846385;29;20049;-78
2021/03/08 12:34:29;;;;;;;19.95;11.48;;;6.80;63.50;;;;;;4845887;29;20140;-78
2021/03/08 12:37:03;;;;;;;17.35;11.20;;;6.90;64.00;;;;;;4831247;29;20110;-78
2021/03/08 12:39:30;;;;;;;13.43;9.82;;;6.90;64.60;;;;;;4830400;29;20521;-78
2021/03/08 12:42:01;;;;;;;19.67;11.05;;;7.00;63.00;;;;;;4830813;29;20050;-78
2021/03/08 12:44:28;;;;;;;12.52;8.80;;;7.10;63.10;;;;;;4860827;29;20434;-78
2021/03/08 12:46:55;;;;;;;13.00;9.20;;;7.10;63.20;;;;;;4845707;29;20046;-78
2021/03/08 12:49:27;;;;;;;10.93;8.63;;;7.20;63.40;;;;;;4845059;29;20053;-78
2021/03/08 12:51:59;;;;;;;11.88;8.90;;;7.40;65.90;;;;;;4845656;29;20058;-78
2021/03/08 12:54:30;;;;;;;10.82;8.55;;;7.50;63.50;;;;;;4846140;29;20064;-78
2021/03/08 12:57:02;;;;;;;59.95;32.83;;;7.70;63.80;;;;;;4830782;29;20121;-80
2021/03/08 12:59:34;;;;;;;125.20;60.40;;;7.80;65.40;;;;;;4844813;29;20049;-79
2021/03/08 13:02:06;;;;;;;16.05;10.60;;;7.80;64.90;;;;;;4830824;29;20405;-78
2021/03/08 13:04:33;;;;;;;13.82;9.73;;;7.80;63.30;;;;;;4845069;29;20058;-78
2021/03/08 13:07:05;;;;;;;11.77;9.20;;;7.80;62.10;;;;;;4830477;29;20096;-78
2021/03/08 13:09:32;;;;;;;14.15;9.65;;;7.90;63.60;;;;;;4845089;29;20049;-78
2021/03/08 13:11:58;;;;;;;12.65;9.05;;;8.00;63.20;;;;;;4861351;29;20544;-78
2021/03/08 13:14:30;;;;;;;11.60;8.80;;;7.90;61.10;;;;;;4845192;29;20071;-78
2021/03/08 13:17:02;;;;;;;15.55;11.73;;;7.70;60.70;;;;;;4845731;29;20148;-77
2021/03/08 13:19:33;;;;;;;12.18;9.23;;;7.60;61.60;;;;;;4830678;29;20057;-79
2021/03/08 13:22:06;;;;;;;17.02;9.55;;;7.40;61.90;;;;;;4845025;29;20418;-79
2021/03/08 13:24:33;;;;;;;12.20;9.27;;;7.40;63.10;;;;;;4860084;29;20045;-79
2021/03/08 13:27:08;;;;;;;14.38;9.30;;;7.40;61.90;;;;;;4830567;29;20136;-79